createdAt,value
2024-05-09T00:02:24.998Z,1.80
2024-05-09T00:04:58.284Z,1.77
2024-05-09T00:07:28.807Z,1.98
2024-05-09T00:09:59.255Z,2.40
2024-05-09T00:12:30.059Z,2.03
2024-05-09T00:15:00.749Z,2.30
2024-05-09T00:17:31.624Z,2.20
2024-05-09T00:20:11.114Z,2.00
2024-05-09T00:22:45.000Z,2.35
2024-05-09T00:25:16.288Z,1.83
2024-05-09T00:27:49.406Z,1.92
2024-05-09T00:30:27.972Z,1.77
2024-05-09T00:33:05.933Z,1.50
2024-05-09T00:35:41.926Z,1.98
2024-05-09T00:38:13.136Z,1.80
2024-05-09T00:40:44.029Z,1.65
2024-05-09T00:43:15.520Z,2.47
2024-05-09T00:45:46.667Z,2.00
2024-05-09T00:48:21.405Z,2.30
2024-05-09T00:50:56.636Z,2.05
2024-05-09T00:53:28.293Z,2.60
2024-05-09T00:56:00.695Z,1.67
2024-05-09T00:58:33.055Z,1.73
2024-05-09T01:01:05.844Z,2.20
2024-05-09T01:03:36.604Z,1.92
2024-05-09T01:06:09.950Z,2.00
2024-05-09T01:08:40.511Z,2.15
2024-05-09T01:11:11.327Z,2.20
2024-05-09T01:13:41.983Z,2.03
2024-05-09T01:16:12.520Z,1.92
2024-05-09T01:18:43.640Z,2.22
2024-05-09T01:21:17.037Z,2.15
2024-05-09T01:23:50.410Z,2.05
2024-05-09T01:26:21.076Z,2.30
2024-05-09T01:28:51.638Z,2.10
2024-05-09T01:31:22.259Z,2.40
2024-05-09T01:33:52.831Z,2.25
2024-05-09T01:36:23.378Z,1.83
2024-05-09T01:38:56.633Z,1.98
2024-05-09T01:41:27.244Z,1.73
2024-05-09T01:43:57.984Z,2.03
2024-05-09T01:46:28.549Z,2.30
2024-05-09T01:48:59.481Z,1.92
2024-05-09T01:51:30.185Z,3.40
2024-05-09T01:54:03.513Z,2.08
2024-05-09T01:56:34.080Z,2.10
2024-05-09T01:59:05.116Z,2.30
2024-05-09T02:01:55.601Z,1.55
2024-05-09T02:04:26.348Z,1.98
2024-05-09T02:06:56.893Z,2.10
2024-05-09T02:09:30.123Z,2.20
2024-05-09T02:12:01.006Z,2.17
2024-05-09T02:14:32.183Z,1.92
2024-05-09T02:17:02.810Z,2.13
2024-05-09T02:19:53.249Z,1.98
2024-05-09T02:22:23.789Z,2.33
2024-05-09T02:24:56.974Z,1.90
2024-05-09T02:27:27.480Z,2.00
2024-05-09T02:29:55.309Z,2.50
2024-05-09T02:32:26.022Z,2.17
2024-05-09T02:34:56.648Z,2.40
2024-05-09T02:37:27.160Z,1.92
2024-05-09T02:39:57.734Z,2.33
2024-05-09T02:42:28.294Z,2.20
2024-05-09T02:44:56.056Z,2.15
2024-05-09T02:47:26.781Z,2.00
2024-05-09T02:49:55.280Z,2.20
2024-05-09T02:52:25.783Z,2.50
2024-05-09T02:54:53.782Z,2.38
2024-05-09T02:57:26.930Z,2.05
2024-05-09T02:59:54.884Z,2.08
2024-05-09T03:02:25.449Z,2.05
2024-05-09T03:04:53.386Z,1.98
2024-05-09T03:07:23.969Z,2.45
2024-05-09T03:09:51.790Z,2.42
2024-05-09T03:12:22.302Z,2.50
2024-05-09T03:14:53.658Z,2.70
2024-05-09T03:17:24.540Z,2.30
2024-05-09T03:19:52.627Z,2.67
2024-05-09T03:22:23.201Z,2.05
2024-05-09T03:24:51.154Z,2.20
2024-05-09T03:27:21.814Z,1.90
2024-05-09T03:29:49.616Z,1.80
2024-05-09T03:32:22.956Z,1.98
2024-05-09T03:34:50.830Z,2.20
2024-05-09T03:37:21.429Z,1.90
2024-05-09T03:39:51.871Z,1.70
2024-05-09T03:42:22.363Z,1.77
2024-05-09T03:44:53.151Z,1.67
2024-05-09T03:47:26.659Z,1.70
2024-05-09T03:49:54.538Z,1.40
2024-05-09T03:52:25.126Z,1.63
2024-05-09T03:54:52.976Z,1.80
2024-05-09T03:57:24.450Z,1.58
2024-05-09T03:59:52.299Z,1.55
2024-05-09T04:02:25.585Z,1.80
2024-05-09T04:04:53.587Z,1.50
2024-05-09T04:07:24.155Z,1.77
2024-05-09T04:09:52.014Z,1.60
2024-05-09T04:12:22.567Z,1.52
2024-05-09T04:14:50.446Z,1.70
2024-05-09T04:17:21.062Z,1.90
2024-05-09T04:19:51.612Z,1.88
2024-05-09T04:22:22.111Z,1.95
2024-05-09T04:24:49.906Z,1.95
2024-05-09T04:27:20.424Z,1.73
2024-05-09T04:29:48.440Z,1.27
2024-05-09T04:32:19.103Z,1.52
2024-05-09T04:34:47.051Z,1.40
2024-05-09T04:37:20.634Z,1.25
2024-05-09T04:39:48.387Z,1.38
2024-05-09T04:42:18.857Z,1.20
2024-05-09T04:44:46.763Z,1.38
2024-05-09T04:47:17.437Z,1.40
2024-05-09T04:49:46.805Z,1.48
2024-05-09T04:52:20.935Z,1.60
2024-05-09T04:54:48.746Z,1.38
2024-05-09T04:57:19.208Z,1.40
2024-05-09T04:59:46.982Z,1.13
2024-05-09T05:02:17.623Z,1.60
2024-05-09T05:04:45.698Z,1.50
2024-05-09T05:07:16.410Z,1.63
2024-05-09T05:09:47.232Z,1.30
2024-05-09T05:12:29.996Z,1.13
2024-05-09T05:15:00.486Z,1.00
2024-05-09T05:17:31.223Z,1.20
2024-05-09T05:19:59.340Z,1.38
2024-05-09T05:22:31.167Z,1.25
2024-05-09T05:25:01.824Z,1.10
2024-05-09T05:27:34.870Z,1.33
2024-05-09T05:30:03.535Z,1.30
2024-05-09T05:32:36.753Z,1.02
2024-05-09T05:35:05.274Z,1.60
2024-05-09T05:37:36.916Z,1.50
2024-05-09T05:40:11.870Z,1.52
2024-05-09T05:42:45.814Z,1.63
2024-05-09T05:45:13.747Z,1.25
2024-05-09T05:47:44.861Z,1.23
2024-05-09T05:50:23.683Z,0.80
2024-05-09T05:53:01.446Z,1.05
2024-05-09T05:55:32.071Z,1.20
2024-05-09T05:58:02.679Z,0.82
2024-05-09T06:00:38.118Z,0.75
2024-05-09T06:03:11.234Z,1.02
2024-05-09T06:05:41.214Z,1.08
2024-05-09T06:08:12.292Z,1.27
2024-05-09T06:10:43.106Z,1.50
2024-05-09T06:13:14.473Z,1.00
2024-05-09T06:15:43.907Z,1.15
2024-05-09T06:18:15.179Z,1.00
2024-05-09T06:20:44.227Z,1.10
2024-05-09T06:23:15.912Z,0.90
2024-05-09T06:25:46.489Z,1.00
2024-05-09T06:28:16.981Z,1.05
2024-05-09T06:30:44.753Z,0.73
2024-05-09T06:33:16.550Z,1.00
2024-05-09T06:35:45.193Z,0.63
2024-05-09T06:38:16.144Z,0.80
2024-05-09T06:40:46.713Z,1.00
2024-05-09T06:43:19.388Z,0.95
2024-05-09T06:45:48.897Z,0.77
2024-05-09T06:48:22.341Z,0.90
2024-05-09T06:50:51.092Z,0.85
2024-05-09T06:53:24.828Z,0.75
2024-05-09T06:55:55.370Z,0.80
2024-05-09T06:58:25.965Z,0.90
2024-05-09T07:00:53.940Z,1.08
2024-05-09T07:03:24.714Z,1.00
2024-05-09T07:05:52.677Z,0.70
2024-05-09T07:08:23.356Z,0.90
2024-05-09T07:10:51.496Z,0.60
2024-05-09T07:13:24.719Z,0.77
2024-05-09T07:15:52.523Z,0.82
2024-05-09T07:18:23.431Z,0.85
2024-05-09T07:20:51.475Z,0.80
2024-05-09T07:23:22.148Z,0.80
2024-05-09T07:25:50.099Z,0.82
2024-05-09T07:28:22.266Z,0.82
2024-05-09T07:30:52.773Z,0.80
2024-05-09T07:33:24.809Z,0.77
2024-05-09T07:35:53.326Z,1.05
2024-05-09T07:38:24.377Z,0.88
2024-05-09T07:40:54.930Z,0.90
2024-05-09T07:43:22.738Z,1.02
2024-05-09T07:45:58.235Z,1.15
2024-05-09T07:50:00.950Z,1.30
2024-05-09T07:53:52.420Z,1.00
2024-05-09T07:56:26.134Z,1.20
2024-05-09T07:58:54.718Z,1.25
2024-05-09T08:01:28.799Z,1.20
2024-05-09T08:03:57.272Z,1.00
2024-05-09T08:06:28.941Z,1.08
2024-05-09T08:08:59.120Z,1.00
2024-05-09T08:11:31.300Z,1.20
2024-05-09T08:13:59.195Z,1.10
2024-05-09T08:16:32.398Z,0.98
2024-05-09T08:19:00.390Z,1.13
2024-05-09T08:21:31.185Z,0.77
2024-05-09T08:23:59.074Z,1.05
2024-05-09T08:26:29.873Z,0.93
2024-05-09T08:28:57.665Z,1.10
2024-05-09T08:31:28.252Z,0.90
2024-05-09T08:33:58.952Z,1.00
2024-05-09T08:36:30.014Z,0.77
2024-05-09T08:38:57.862Z,1.00
2024-05-09T08:41:28.435Z,1.00
2024-05-09T08:43:56.251Z,0.90
2024-05-09T08:46:28.841Z,1.08
2024-05-09T08:49:01.158Z,0.90
2024-05-09T08:51:31.914Z,0.90
2024-05-09T08:54:00.104Z,1.15
2024-05-09T08:56:32.115Z,1.15
2024-05-09T08:59:01.878Z,0.98
2024-05-09T09:01:35.770Z,1.38
2024-05-09T09:04:08.762Z,0.90
2024-05-09T09:06:41.996Z,0.85
2024-05-09T09:09:10.932Z,0.95
2024-05-09T09:11:41.588Z,1.13
2024-05-09T09:14:09.405Z,1.15
2024-05-09T09:16:40.102Z,1.00
2024-05-09T09:19:10.906Z,0.90
2024-05-09T09:21:42.781Z,0.90
2024-05-09T09:24:10.621Z,1.10
2024-05-09T09:26:41.351Z,0.93
2024-05-09T09:29:09.132Z,1.00
2024-05-09T09:31:39.900Z,1.20
2024-05-09T09:34:10.963Z,1.30
2024-05-09T09:36:44.120Z,1.50
2024-05-09T09:39:16.805Z,1.25
2024-05-09T09:41:50.928Z,1.13
2024-05-09T09:44:19.980Z,1.00
2024-05-09T09:46:51.577Z,1.40
2024-05-09T09:49:23.608Z,1.40
2024-05-09T09:51:54.891Z,1.58
2024-05-09T09:54:23.135Z,1.20
2024-05-09T09:56:55.412Z,1.00
2024-05-09T09:59:25.434Z,1.17
2024-05-09T10:01:56.333Z,0.95
2024-05-09T10:04:27.660Z,1.23
2024-05-09T10:07:03.372Z,1.20
2024-05-09T10:09:32.741Z,1.20
2024-05-09T10:12:12.674Z,0.93
2024-05-09T10:14:46.079Z,1.52
2024-05-09T10:17:16.634Z,1.30
2024-05-09T10:19:47.695Z,1.25
2024-05-09T10:22:28.962Z,1.10
2024-05-09T10:25:05.515Z,1.20
2024-05-09T10:27:39.266Z,1.30
2024-05-09T10:30:14.398Z,1.42
2024-05-09T10:32:48.334Z,1.15
2024-05-09T10:35:19.761Z,1.40
2024-05-09T10:37:51.548Z,1.05
2024-05-09T10:40:26.323Z,1.20
2024-05-09T10:43:05.839Z,1.20
2024-05-09T10:45:36.063Z,1.17
2024-05-09T10:48:07.201Z,1.30
2024-05-09T10:50:40.490Z,1.30
2024-05-09T10:53:11.003Z,1.40
2024-05-09T10:55:38.839Z,1.38
2024-05-09T10:58:20.549Z,1.10
2024-05-09T11:00:48.728Z,1.30
2024-05-09T11:03:21.532Z,1.60
2024-05-09T11:05:52.374Z,1.33
2024-05-09T11:08:23.482Z,1.58
2024-05-09T11:10:53.210Z,1.58
2024-05-09T11:13:31.301Z,1.50
2024-05-09T11:16:00.432Z,1.27
2024-05-09T11:18:35.085Z,1.50
2024-05-09T11:21:13.911Z,1.58
2024-05-09T11:23:45.120Z,1.50
2024-05-09T11:26:15.461Z,1.33
2024-05-09T11:28:48.295Z,1.27
2024-05-09T11:31:16.294Z,1.73
2024-05-09T11:33:48.056Z,1.42
2024-05-09T11:36:19.060Z,1.35
2024-05-09T11:38:51.144Z,1.30
2024-05-09T11:41:19.161Z,1.58
2024-05-09T11:43:49.846Z,1.60
2024-05-09T11:46:17.672Z,1.52
2024-05-09T11:48:48.607Z,1.67
2024-05-09T11:51:19.296Z,1.58
2024-05-09T11:53:49.810Z,1.30
2024-05-09T11:56:17.685Z,1.70
2024-05-09T11:58:48.205Z,1.58
2024-05-09T12:01:16.059Z,1.73
2024-05-09T12:03:46.727Z,1.80
2024-05-09T12:06:14.784Z,1.67
2024-05-09T12:08:48.372Z,1.67
2024-05-09T12:11:16.934Z,1.70
2024-05-09T12:13:47.507Z,2.58
2024-05-09T12:16:15.648Z,1.75
2024-05-09T12:18:47.617Z,1.60
2024-05-09T12:21:17.613Z,2.30
2024-05-09T12:23:50.808Z,1.58
2024-05-09T12:26:18.662Z,1.60
2024-05-09T12:28:49.416Z,1.77
2024-05-09T12:31:17.241Z,1.33
2024-05-09T12:33:47.826Z,1.50
2024-05-09T12:36:19.811Z,1.63
2024-05-09T12:38:53.086Z,1.80
2024-05-09T12:41:20.901Z,2.20
2024-05-09T12:43:51.839Z,1.75
2024-05-09T12:46:20.747Z,1.60
2024-05-09T12:48:52.097Z,1.63
2024-05-09T12:51:20.391Z,1.65
2024-05-09T12:53:53.925Z,1.50
2024-05-09T12:56:21.788Z,1.30
2024-05-09T12:58:52.733Z,1.77
2024-05-09T13:01:20.781Z,1.60
2024-05-09T13:03:51.670Z,1.60
2024-05-09T13:06:19.703Z,1.70
2024-05-09T13:08:52.881Z,1.42
2024-05-09T13:11:20.711Z,1.58
2024-05-09T13:13:51.295Z,1.70
2024-05-09T13:16:19.229Z,1.60
2024-05-09T13:18:49.864Z,1.50
2024-05-09T13:21:17.879Z,1.33
2024-05-09T13:23:48.388Z,1.65
2024-05-09T13:26:19.070Z,1.40
2024-05-09T13:28:49.600Z,1.50
2024-05-09T13:31:17.432Z,1.80
2024-05-09T13:33:48.099Z,1.52
2024-05-09T13:36:16.043Z,1.77
2024-05-09T13:38:46.600Z,1.40
2024-05-09T13:41:17.180Z,1.90
2024-05-09T13:43:48.474Z,1.75
2024-05-09T13:46:19.154Z,1.50
2024-05-09T13:48:47.199Z,1.80
2024-05-09T13:51:17.797Z,1.48
2024-05-09T13:53:45.571Z,2.08
2024-05-09T13:56:16.246Z,1.23
2024-05-09T13:58:46.968Z,1.63
2024-05-09T14:01:17.544Z,1.67
2024-05-09T14:03:45.589Z,1.55
2024-05-09T14:06:16.246Z,1.73
2024-05-09T14:08:44.163Z,3.47
2024-05-09T14:11:14.766Z,1.52
2024-05-09T14:13:42.738Z,1.88
2024-05-09T14:16:16.486Z,1.50
2024-05-09T14:18:44.369Z,1.60
2024-05-09T14:21:14.962Z,1.75
2024-05-09T14:23:42.873Z,1.52
2024-05-09T14:26:13.595Z,1.60
2024-05-09T14:28:41.443Z,1.60
2024-05-09T14:31:12.459Z,1.63
2024-05-09T14:33:43.200Z,2.00
2024-05-09T14:36:14.068Z,1.52
2024-05-09T14:38:41.918Z,1.55
2024-05-09T14:41:13.616Z,1.40
2024-05-09T14:43:41.480Z,1.60
2024-05-09T14:46:12.210Z,1.60
2024-05-09T14:48:43.137Z,2.00
2024-05-09T14:51:13.670Z,2.10
2024-05-09T14:53:41.565Z,2.28
2024-05-09T14:56:12.405Z,2.20
2024-05-09T14:58:40.293Z,1.73
2024-05-09T15:01:10.875Z,1.83
2024-05-09T15:03:38.873Z,2.00
2024-05-09T15:06:12.379Z,1.60
2024-05-09T15:08:40.210Z,1.70
2024-05-09T15:11:10.797Z,2.03
2024-05-09T15:13:38.672Z,1.48
2024-05-09T15:16:09.878Z,1.30
2024-05-09T15:18:40.001Z,2.45
2024-05-09T15:21:15.440Z,1.90
2024-05-09T15:23:43.276Z,2.05
2024-05-09T15:26:14.080Z,2.35
2024-05-09T15:28:42.272Z,2.15
2024-05-09T15:31:12.843Z,2.03
2024-05-09T15:33:41.953Z,1.50
2024-05-09T15:36:15.256Z,1.70
2024-05-09T15:38:43.126Z,1.80
2024-05-09T15:41:13.640Z,1.95
2024-05-09T15:43:41.510Z,2.03
2024-05-09T15:46:12.509Z,1.92
2024-05-09T15:48:44.640Z,1.85
2024-05-09T15:51:18.174Z,2.20
2024-05-09T15:53:46.000Z,1.70
2024-05-09T15:56:16.607Z,1.55
2024-05-09T15:58:44.793Z,2.00
2024-05-09T16:01:15.546Z,1.83
2024-05-09T16:03:43.850Z,1.98
2024-05-09T16:06:15.027Z,2.00
2024-05-09T16:08:45.633Z,1.67
2024-05-09T16:11:17.351Z,2.17
2024-05-09T16:13:45.211Z,2.00
2024-05-09T16:16:15.791Z,1.83
2024-05-09T16:18:43.842Z,2.00
2024-05-09T16:21:14.391Z,1.90
2024-05-09T16:23:44.927Z,1.70
2024-05-09T16:26:15.507Z,1.85
2024-05-09T16:28:43.335Z,1.73
2024-05-09T16:31:13.820Z,2.00
2024-05-09T16:33:41.819Z,1.70
2024-05-09T16:36:12.617Z,2.97
2024-05-09T16:38:41.615Z,1.90
2024-05-09T16:41:15.671Z,1.85
2024-05-09T16:43:43.551Z,2.13
2024-05-09T16:46:14.265Z,2.17
2024-05-09T16:48:45.788Z,2.20
2024-05-09T16:51:16.373Z,1.80
2024-05-09T16:53:44.245Z,2.70
2024-05-09T16:56:17.646Z,2.05
2024-05-09T16:58:45.789Z,2.38
2024-05-09T17:01:16.484Z,2.33
2024-05-09T17:03:44.603Z,2.15
2024-05-09T17:06:15.339Z,2.50
2024-05-09T17:08:43.949Z,2.28
2024-05-09T17:11:17.300Z,2.10
2024-05-09T17:13:48.352Z,2.17
2024-05-09T17:16:19.215Z,2.40
2024-05-09T17:18:50.697Z,2.20
2024-05-09T17:21:18.969Z,2.10
2024-05-09T17:23:51.431Z,2.13
2024-05-09T17:26:22.242Z,2.30
2024-05-09T17:28:53.152Z,2.50
2024-05-09T17:31:21.020Z,2.10
2024-05-09T17:33:51.861Z,2.33
2024-05-09T17:36:20.170Z,2.47
2024-05-09T17:38:50.752Z,3.10
2024-05-09T17:41:18.513Z,2.20
2024-05-09T17:43:51.994Z,2.33
2024-05-09T17:46:20.045Z,2.63
2024-05-09T17:48:50.728Z,2.55
2024-05-09T17:51:18.605Z,2.33
2024-05-09T17:53:49.072Z,2.13
2024-05-09T17:56:17.017Z,2.60
2024-05-09T17:58:49.117Z,2.40
2024-05-09T18:01:19.783Z,2.58
2024-05-09T18:03:51.071Z,2.78
2024-05-09T18:06:18.995Z,2.60
2024-05-09T18:08:49.546Z,2.70
2024-05-09T18:11:17.731Z,2.50
2024-05-09T18:13:49.005Z,2.45
2024-05-09T18:16:19.954Z,2.65
2024-05-09T18:18:50.934Z,2.72
2024-05-09T18:21:18.837Z,2.25
2024-05-09T18:23:52.192Z,3.70
2024-05-09T18:26:20.096Z,3.22
2024-05-09T18:28:50.668Z,2.83
2024-05-09T18:31:21.200Z,2.60
2024-05-09T18:33:52.149Z,2.55
2024-05-09T18:36:20.315Z,3.53
2024-05-09T18:38:51.261Z,3.03
2024-05-09T18:41:20.591Z,2.83
2024-05-09T18:43:51.316Z,2.60
2024-05-09T18:46:22.018Z,2.90
2024-05-09T18:48:52.635Z,3.40
2024-05-09T18:51:21.274Z,2.83
2024-05-09T18:53:52.590Z,2.63
2024-05-09T18:56:20.466Z,2.80
2024-05-09T18:58:50.998Z,2.83
2024-05-09T19:01:21.560Z,2.85
2024-05-09T19:03:52.199Z,2.78
2024-05-09T19:06:24.479Z,2.60
2024-05-09T19:08:55.293Z,2.80
2024-05-09T19:11:23.106Z,2.67
2024-05-09T19:13:53.685Z,2.80
2024-05-09T19:16:24.519Z,3.05
2024-05-09T19:18:57.018Z,2.53
2024-05-09T19:21:24.898Z,2.63
2024-05-09T19:23:55.811Z,2.20
2024-05-09T19:26:23.898Z,2.60
2024-05-09T19:28:55.269Z,2.92
2024-05-09T19:31:25.989Z,3.17
2024-05-09T19:33:56.664Z,2.80
2024-05-09T19:36:24.862Z,2.63
2024-05-09T19:38:55.529Z,2.97
2024-05-09T19:41:23.342Z,2.90
2024-05-09T19:43:53.940Z,2.65
2024-05-09T19:46:22.109Z,2.97
2024-05-09T19:48:55.965Z,2.60
2024-05-09T19:51:23.972Z,3.03
2024-05-09T19:53:55.333Z,3.00
2024-05-09T19:56:23.332Z,2.90
2024-05-09T19:58:55.282Z,2.92
2024-05-09T20:01:23.215Z,3.20
2024-05-09T20:03:59.317Z,2.80
2024-05-09T20:06:29.024Z,3.58
2024-05-09T20:09:00.729Z,3.47
2024-05-09T20:11:28.565Z,4.00
2024-05-09T20:14:02.422Z,3.88
2024-05-09T20:16:30.342Z,4.40
2024-05-09T20:19:03.825Z,3.78
2024-05-09T20:24:01.922Z,4.20
2024-05-09T20:26:31.011Z,3.63
2024-05-09T20:29:01.565Z,4.03
2024-05-09T20:31:29.417Z,3.75
2024-05-09T20:34:02.632Z,3.42
2024-05-09T20:36:30.603Z,3.85
2024-05-09T20:39:01.232Z,3.22
2024-05-09T20:41:29.112Z,3.13
2024-05-09T20:44:02.309Z,3.25
2024-05-09T20:46:30.152Z,3.40
2024-05-09T20:49:03.572Z,3.22
2024-05-09T20:51:33.495Z,2.88
2024-05-09T20:54:04.031Z,3.20
2024-05-09T20:56:31.835Z,3.33
2024-05-09T20:59:02.432Z,3.20
2024-05-09T21:01:30.341Z,3.40
2024-05-09T21:04:03.731Z,3.20
2024-05-09T21:06:31.760Z,3.25
2024-05-09T21:09:02.405Z,2.92
2024-05-09T21:11:30.252Z,2.97
2024-05-09T21:14:00.928Z,2.67
2024-05-09T21:16:28.903Z,2.92
2024-05-09T21:18:59.495Z,3.10
2024-05-09T21:21:30.035Z,3.05
2024-05-09T21:24:00.506Z,2.70
2024-05-09T21:26:29.739Z,3.17
2024-05-09T21:29:00.282Z,2.75
2024-05-09T21:31:28.347Z,3.05
2024-05-09T21:33:59.116Z,3.40
2024-05-09T21:36:29.679Z,3.35
2024-05-09T21:39:00.182Z,2.95
2024-05-09T21:41:27.966Z,2.92
2024-05-09T21:43:58.509Z,2.40
2024-05-09T21:46:26.547Z,2.80
2024-05-09T21:48:58.369Z,2.70
2024-05-09T21:51:29.228Z,11.43
2024-05-09T21:53:59.804Z,2.50
2024-05-09T21:56:27.656Z,2.50
2024-05-09T21:58:58.245Z,2.70
2024-05-09T22:01:26.135Z,2.47
2024-05-09T22:03:56.887Z,2.40
2024-05-09T22:06:24.800Z,2.70
2024-05-09T22:08:58.256Z,2.00
2024-05-09T22:11:26.393Z,2.55
2024-05-09T22:13:56.922Z,2.53
2024-05-09T22:16:25.028Z,2.33
2024-05-09T22:18:55.714Z,2.63
2024-05-09T22:21:23.586Z,2.85
2024-05-09T22:23:54.101Z,2.40
2024-05-09T22:26:24.592Z,2.60
2024-05-09T22:28:55.062Z,3.10
2024-05-09T22:31:23.007Z,2.53
2024-05-09T22:33:53.863Z,2.70
2024-05-09T22:36:22.594Z,2.50
2024-05-09T22:38:54.242Z,2.63
2024-05-09T22:41:24.769Z,2.60
2024-05-09T22:43:55.240Z,2.53
2024-05-09T22:46:23.145Z,2.85
2024-05-09T22:48:54.009Z,2.65
2024-05-09T22:51:21.869Z,2.45
2024-05-09T22:53:52.354Z,2.67
2024-05-09T22:56:29.547Z,2.85
2024-05-09T22:59:00.569Z,2.42
2024-05-09T23:01:28.416Z,2.88
2024-05-09T23:03:59.263Z,2.22
2024-05-09T23:06:27.304Z,2.28
2024-05-09T23:08:57.830Z,2.38
2024-05-09T23:11:25.689Z,2.42
2024-05-09T23:13:58.907Z,2.45
2024-05-09T23:16:26.786Z,2.60
2024-05-09T23:18:57.417Z,2.75
2024-05-09T23:21:25.399Z,2.70
2024-05-09T23:23:55.922Z,2.33
2024-05-09T23:26:24.128Z,2.50
2024-05-09T23:28:54.612Z,2.30
2024-05-09T23:31:25.316Z,2.10
2024-05-09T23:33:56.264Z,2.72
2024-05-09T23:36:24.358Z,2.75
2024-05-09T23:38:54.834Z,2.47
2024-05-09T23:41:22.964Z,2.40
2024-05-09T23:43:53.519Z,2.58
2024-05-09T23:46:21.460Z,2.22
2024-05-09T23:48:54.929Z,2.10
2024-05-09T23:51:22.797Z,2.05
2024-05-09T23:53:53.327Z,2.38
2024-05-09T23:56:21.646Z,2.35
2024-05-09T23:58:52.171Z,2.40
